x

Buoy A01 - Mass. Bay/stellwagen (44029) Wave Buoy

9:04 - Wed 26th Jul 2017 All times are EDT. -4 hours from GMT.

  • Sig Wave height 2.0ft
  • Peak Period 8s
  • Wind
    11mph, 11mph gusts
  • Sea Temp 64°f
  • Air Temp 65°f
  • Sea Pressure 1019.5mb
  • Buoy A01 - Mass. Bay/stellwagen
  • Buoy A01 - Mass. Bay/stellwagen

More Historic Weather Station data

Upgrade to MSW Pro to gain access to the past 30 days of data for over 8000 Wavebouys and Weather Stations around the globe.

Join Pro

Comparision Forecast

View Surf forecast
   
mer. 07/26 9:04 2ft 8s 11 11 mph 1019.5mb 64f 65f
8:04 2ft 8s 9 11 mph 1019.7mb 63f 65f
7:04 2.5ft 8s 9 11 mph 1019.6mb 63f 65f
6:04 2.5ft 8s 7 9 mph 1019.7mb 63f 66f
5:04 2.5ft 8s 7 9 mph 1020.1mb 63f 66f
4:04 3ft 8s 4 7 mph 1020.8mb 62f 66f
3:04 2.5ft 8s 4 7 mph 1021.1mb 63f 67f
2:04 2.5ft 8s 2 4 mph 1021.4mb 63f 67f
1:04 2.5ft 8s 2 2 mph 1021.9mb 63f 66f
12:04 2.5ft 8s 2 4 mph 1022.3mb 62f 66f
11:04 2.5ft 8s 2 4 mph 1023mb 62f 64f
10:04 2.5ft 8s 2 4 mph 1023.2mb 61f 64f
9:04 2.5ft 8s 2 2 mph 1022.8mb 62f 62f
8:04 2.5ft 8s 4 4 mph 1023mb 61f 62f
7:04 2.5ft 8s 7 7 mph 1022.7mb 61f 63f
6:04 2.5ft 8s 7 7 mph 1022.4mb 62f 61f
5:04 2.5ft 8s 7 7 mph 1021.9mb 62f 61f
4:04 3.5ft 8s 9 11 mph 1021.7mb 62f 62f
3:04 3ft 8s 7 9 mph 1021.4mb 62f 62f
2:04 3.5ft 8s 7 9 mph 1021.9mb 62f 62f
1:04 3ft 8s 7 9 mph 1022mb 63f 63f
12:04 3ft 8s 7 9 mph 1022.1mb 63f 63f
mar. 07/25 11:04 3.5ft 8s 4 7 mph 1021.9mb 62f 62f
10:04 4ft 6s 4 4 mph 1022mb 61f 61f
9:04 3.5ft 8s 2 2 mph 1021.7mb 61f 61f
8:04 3.5ft 6s 4 4 mph 1021.6mb 61f 62f
7:04 4.5ft 8s 4 4 mph 1021.1mb 62f 63f
6:04 4.5ft 8s 4 4 mph 1020.6mb 62f 64f
5:04 4ft 8s 7 9 mph 1020.6mb 61f 62f
4:04 5ft 8s 9 11 mph 1020.5mb 61f 62f
3:04 5ft 8s 13 16 mph 1019.9mb 61f 62f
2:04 5ft 8s 11 13 mph 1019.3mb 61f 61f
1:04 6ft 8s 13 16 mph 1019.1mb 60f 61f
12:04 6.5ft 8s 16 20 mph 1018.8mb 60f 61f
11:04 6ft 8s 18 20 mph 1018.4mb 60f 61f
10:04 5.5ft 8s 16 18 mph 1018.5mb 60f 60f
9:04 5.5ft 8s 16 18 mph 1018.1mb 60f 59f
8:04 6.5ft 8s 16 20 mph 1017.3mb 60f 60f
7:04 6ft 8s 16 18 mph 1016.7mb 60f 59f
6:04 7ft 8s 18 20 mph 1016.1mb 60f 59f
5:04 7.5ft 8s 18 20 mph 1015.1mb 60f 60f
4:04 7ft 8s 16 20 mph 1014.8mb 59f 59f
3:04 8.5ft 8s 18 22 mph 1014.1mb 60f 58f
2:04 9ft 8s 22 27 mph 1014.1mb 59f 58f
1:04 9.5ft 8s 20 25 mph 1014mb 60f 60f
12:04 8ft 8s 20 25 mph 1013.6mb 60f 59f
lun. 07/24 11:04 8.5ft 8s 20 25 mph 1012.9mb 60f 59f
10:04 8ft 6s 20 22 mph 1012.7mb 60f 59f
9:04 7.5ft 6s 22 27 mph 1012.3mb 60f 60f
8:04 8ft 6s 25 29 mph 1011.6mb 61f 60f
7:04 8ft 6s 27 34 mph 1011.2mb 62f 60f
6:04 7ft 6s 27 34 mph 1011.2mb 62f 60f
5:04 6ft 6s 27
mph
1011mb 62f 59f
4:04 6ft 6s 29
mph
1011mb 62f 58f
3:04 6.5ft 6s 27 31 mph 1011.3mb 63f 58f
2:04 5ft 5s 25 31 mph 1011.6mb 63f 59f
1:04 4.5ft 5s 22 27 mph 1011.9mb 64f 59f
12:04 4.5ft 5s 20 29 mph 1012.6mb 64f 63f
11:04 3ft 5s 20 27 mph 1013.5mb 64f 63f
10:04 3.5ft 5s 16 20 mph 1013.3mb 64f 64f
9:04 2ft 4s 16 20 mph 1013.8mb 64f 65f
8:04 1.6ft 5s 13 18 mph 1013.7mb 64f 65f
7:04 1.6ft 5s 11 13 mph 1013.7mb 65f 65f
6:04 1.6ft 8s 9 11 mph 1013.3mb 65f 65f
5:04 1.6ft 5s 9 9 mph 1013.2mb 65f 65f
4:04 1.6ft 5s 7 7 mph 1013.5mb 64f 65f
3:04 1.6ft 8s 4 4 mph 1013mb 65f 65f
2:04 1.6ft 5s 4 4 mph 1013.2mb 65f 65f
1:04 2ft 5s 7 9 mph 1013.3mb 65f 65f
12:04 2.5ft 5s 7 7 mph 1013mb 65f 65f
dim. 07/23 11:04 2.5ft 5s 7 9 mph 1012.8mb 65f 65f
10:04 2.5ft 5s 7 9 mph 1013mb 65f 65f
9:04 2.5ft 5s 7 9 mph 1012.7mb 65f 65f
8:04 2.5ft 5s 7 9 mph 1012.4mb 65f 65f
7:04 2.5ft 5s 4 7 mph 1012.4mb 65f 66f
6:04 3ft 5s 7 7 mph 1012.4mb 65f 66f
5:04 3.5ft 6s 9 11 mph 1011.9mb 65f 66f
4:04 3.5ft 6s 11 13 mph 1011.6mb 65f 66f
3:04 3.5ft 6s 9 11 mph 1011.9mb 65f 66f
2:04 4ft 6s 9 11 mph 1011.9mb 64f 65f
1:04 4.5ft 6s 11 13 mph 1011.8mb 64f 65f
12:04 4.5ft 6s 11 13 mph 1011.6mb 64f 65f
11:04 5ft 6s 13 16 mph 1011mb 64f 65f
10:04 5ft 6s 13 16 mph 1010.9mb 65f 65f
9:04 5ft 6s 16 18 mph 1010.2mb 65f 66f
8:04 4.5ft 5s 18 20 mph 1009.5mb 65f 67f
7:04 4.5ft 5s 16 20 mph 1009.1mb 65f 67f
6:04 3.5ft 4s 20 27 mph 1008.3mb 65f 67f
5:04 3ft 4s 25 29 mph 1007.5mb 64f 68f
4:04 2ft 3s 22 25 mph 1007.1mb 65f 69f
3:04 1.3ft 8s 16 18 mph 1006.6mb 64f 69f